Aguilar, Colorado
Current Conditions -  °F | °C
As of 11:54 AM on Tuesday 21 Oct 2014 (Local Time) from KTAD Reporting Station
Broken Clouds Broken Clouds  
Wind Chill: 22°   Ceiling: 10000
Heat Index: 22°   Visibility: 10mi
Dew Point:   Wind: 20mph
Humidity: 31%   Direction: 210°SSW
Pressure: 30.09"   Gusts: 24mph
Location:  37.4°N, 104.65°W
Report Text: KTAD 211754Z AUTO 21017G21KT 10SM BKN100 22/04 A3009 RMK AO2 SLP122 T02170039 10222 20089 58013
Loading
Personal Weather Stations






























Interactive Weather Map
Tropical Storm Tracking
New forecast layout! Learn more

10-Day Weather Forecast

Advertisements
Track Severe Weather on mobile